Weather Center

VHHH METAR :
VHHH 160030Z 06008KT 9999 FEW020 23/18 Q1019 NOSIG

VHHH TAF :
VHHH 152300Z 1600/1706 10010KT 9000 FEW020 TX27/1606Z TX24/1706Z TN20/1622Z
TEMPO 1603/1609 27010KT
TEMPO 1618/1706 09015G25KT

VMMC METAR :
VMMCH

VMMC TAF :
VMMC 152307Z 1600/1706 09008KT 9000 FEW015 SCT025
TEMPO 1610/1706 10015G25KT

Comments are closed